createdAt,value
2018-12-11T00:03:13.925Z,20.78
2018-12-11T00:08:17.291Z,20.76
2018-12-11T00:13:21.130Z,20.76
2018-12-11T00:18:24.535Z,20.79
2018-12-11T00:23:28.052Z,20.77
2018-12-11T00:28:31.456Z,20.81
2018-12-11T00:33:34.935Z,20.81
2018-12-11T00:38:38.373Z,20.82
2018-12-11T00:43:41.797Z,20.82
2018-12-11T00:48:45.274Z,20.82
2018-12-11T00:53:55.442Z,20.84
2018-12-11T00:58:58.872Z,20.85
2018-12-11T01:04:02.504Z,20.82
2018-12-11T01:09:07.036Z,20.76
2018-12-11T01:14:10.580Z,20.71
2018-12-11T01:19:14.042Z,20.65
2018-12-11T01:24:17.465Z,20.55
2018-12-11T01:29:20.819Z,20.46
2018-12-11T01:34:24.347Z,20.38
2018-12-11T01:39:27.821Z,20.30
2018-12-11T01:44:31.186Z,20.24
2018-12-11T01:49:34.590Z,20.18
2018-12-11T01:54:37.968Z,20.14
2018-12-11T01:59:41.357Z,20.10
2018-12-11T02:04:44.739Z,20.07
2018-12-11T02:09:48.247Z,20.03
2018-12-11T02:14:51.639Z,19.99
2018-12-11T02:19:55.129Z,19.97
2018-12-11T02:24:58.517Z,19.92
2018-12-11T02:30:01.904Z,19.88
2018-12-11T02:35:06.308Z,19.88
2018-12-11T02:40:09.717Z,19.86
2018-12-11T02:45:13.041Z,19.85
2018-12-11T02:50:16.626Z,19.79
2018-12-11T02:55:20.502Z,19.79
2018-12-11T03:00:24.586Z,19.77
2018-12-11T03:05:28.089Z,19.75
2018-12-11T03:10:31.444Z,19.73
2018-12-11T03:15:34.788Z,19.74
2018-12-11T03:20:38.139Z,19.72
2018-12-11T03:25:41.594Z,19.72
2018-12-11T03:30:44.937Z,19.71
2018-12-11T03:35:48.489Z,19.69
2018-12-11T03:40:52.113Z,19.66
2018-12-11T03:45:55.521Z,19.66
2018-12-11T03:50:58.971Z,19.61
2018-12-11T03:56:02.348Z,19.56
2018-12-11T04:01:05.838Z,19.52
2018-12-11T04:06:09.339Z,19.51
2018-12-11T04:11:12.775Z,19.51
2018-12-11T04:16:16.264Z,19.47
2018-12-11T04:21:19.761Z,19.47
2018-12-11T04:26:23.209Z,19.47
2018-12-11T04:31:26.621Z,19.45
2018-12-11T04:36:30.008Z,19.45
2018-12-11T04:41:33.465Z,19.43
2018-12-11T04:46:36.854Z,19.42
2018-12-11T04:51:41.349Z,19.42
2018-12-11T04:56:44.762Z,19.39
2018-12-11T05:01:48.157Z,19.38
2018-12-11T05:06:51.580Z,19.36
2018-12-11T05:11:55.068Z,19.33
2018-12-11T05:16:58.401Z,19.33
2018-12-11T05:22:01.882Z,19.29
2018-12-11T05:27:05.465Z,19.28
2018-12-11T05:32:08.848Z,19.28
2018-12-11T05:37:12.353Z,19.26
2018-12-11T05:42:15.776Z,19.24
2018-12-11T05:47:25.669Z,19.24
2018-12-11T05:52:29.028Z,19.24
2018-12-11T05:57:32.352Z,19.25
2018-12-11T06:02:35.778Z,19.23
2018-12-11T06:07:39.242Z,19.24
2018-12-11T06:12:42.701Z,19.22
2018-12-11T06:17:46.762Z,19.22
2018-12-11T06:22:50.264Z,19.23
2018-12-11T06:27:53.681Z,19.22
2018-12-11T06:32:57.089Z,19.24
2018-12-11T06:38:00.481Z,19.26
2018-12-11T06:43:03.836Z,19.25
2018-12-11T06:48:07.705Z,19.24
2018-12-11T06:53:11.151Z,19.26
2018-12-11T06:58:14.640Z,19.26
2018-12-11T07:03:18.406Z,19.26
2018-12-11T07:08:21.770Z,19.25
2018-12-11T07:13:25.149Z,19.24
2018-12-11T07:18:28.481Z,19.24
2018-12-11T07:23:31.840Z,19.24
2018-12-11T07:28:35.361Z,19.23
2018-12-11T07:33:38.804Z,19.23
2018-12-11T07:38:42.180Z,19.22
2018-12-11T07:43:45.576Z,19.21
2018-12-11T07:48:49.053Z,19.20
2018-12-11T07:53:52.385Z,19.24
2018-12-11T07:58:55.706Z,18.85
2018-12-11T08:03:59.023Z,18.73
2018-12-11T08:09:02.330Z,18.52
2018-12-11T08:14:05.907Z,18.76
2018-12-11T08:19:09.545Z,16.69
2018-12-11T08:24:13.080Z,15.68
2018-12-11T08:29:17.378Z,17.17
2018-12-11T08:34:20.951Z,18.91
2018-12-11T08:39:24.441Z,19.55
2018-12-11T08:44:27.865Z,19.94
2018-12-11T08:49:31.417Z,19.98
2018-12-11T08:54:34.872Z,19.95
2018-12-11T08:59:38.471Z,19.86
2018-12-11T09:04:41.959Z,19.78
2018-12-11T09:09:45.445Z,19.70
2018-12-11T09:14:49.030Z,19.61
2018-12-11T09:19:52.485Z,19.53
2018-12-11T09:24:55.932Z,19.46
2018-12-11T09:29:59.451Z,19.39
2018-12-11T09:35:02.999Z,19.33
2018-12-11T09:40:06.679Z,19.28
2018-12-11T09:45:10.196Z,19.25
2018-12-11T09:50:13.882Z,19.20
2018-12-11T09:55:17.346Z,19.18
2018-12-11T10:00:25.401Z,19.16
2018-12-11T10:05:26.240Z,19.15
2018-12-11T10:10:29.769Z,19.13
2018-12-11T10:15:33.305Z,19.13
2018-12-11T10:20:36.983Z,19.15
2018-12-11T10:25:40.415Z,19.33
2018-12-11T10:30:48.031Z,19.57
2018-12-11T10:35:51.459Z,19.68
2018-12-11T10:41:01.661Z,19.68
2018-12-11T10:46:05.374Z,19.62
2018-12-11T10:51:08.876Z,19.57
2018-12-11T10:56:12.215Z,19.51
2018-12-11T11:01:21.991Z,19.46
2018-12-11T11:06:25.381Z,19.42
2018-12-11T11:11:28.749Z,19.39
2018-12-11T11:16:32.644Z,19.34
2018-12-11T11:21:36.070Z,19.31
2018-12-11T11:26:39.415Z,19.30
2018-12-11T11:31:42.988Z,19.31
2018-12-11T11:36:46.306Z,19.28
2018-12-11T11:41:49.764Z,19.29
2018-12-11T11:46:53.243Z,19.29
2018-12-11T11:51:56.609Z,19.27
2018-12-11T11:56:59.985Z,19.29
2018-12-11T12:02:03.408Z,19.34
2018-12-11T12:07:06.870Z,19.31
2018-12-11T12:12:10.248Z,19.29
2018-12-11T12:17:13.651Z,19.33
2018-12-11T12:22:17.198Z,19.33
2018-12-11T12:27:20.582Z,19.32
2018-12-11T12:32:24.173Z,19.37
2018-12-11T12:37:27.637Z,19.41
2018-12-11T12:42:31.037Z,19.43
2018-12-11T12:47:34.538Z,19.46
2018-12-11T12:52:38.042Z,19.47
2018-12-11T12:57:41.410Z,19.51
2018-12-11T13:02:49.847Z,11.36
2018-12-11T13:07:50.106Z,10.28
2018-12-11T13:12:53.686Z,9.23
2018-12-11T13:17:57.108Z,8.61
2018-12-11T13:23:00.471Z,13.82
2018-12-11T13:28:03.891Z,16.49
2018-12-11T13:33:07.336Z,17.59
2018-12-11T13:38:10.720Z,18.27
2018-12-11T13:43:14.217Z,18.70
2018-12-11T13:48:23.285Z,19.06
2018-12-11T13:53:23.167Z,19.33
2018-12-11T13:58:26.568Z,19.44
2018-12-11T14:03:30.038Z,19.48
2018-12-11T14:08:33.525Z,19.38
2018-12-11T14:13:36.976Z,19.37
2018-12-11T14:23:47.656Z,19.34
2018-12-11T14:28:52.781Z,19.33
2018-12-11T14:33:56.189Z,19.26
2018-12-11T14:38:59.544Z,19.21
2018-12-11T14:44:03.023Z,19.23
2018-12-11T14:49:06.611Z,19.24
2018-12-11T14:54:10.138Z,19.33
2018-12-11T14:59:13.527Z,19.47
2018-12-11T15:04:17.027Z,19.62
2018-12-11T15:09:40.762Z,19.68
2018-12-11T15:14:44.118Z,19.65
2018-12-11T15:19:47.717Z,19.61
2018-12-11T15:24:57.126Z,19.57
2018-12-11T15:30:03.284Z,19.60
2018-12-11T15:35:09.298Z,19.53
2018-12-11T15:40:18.107Z,19.55
2018-12-11T15:45:28.248Z,19.53
2018-12-11T15:50:32.026Z,19.64
2018-12-11T15:55:40.977Z,19.80
2018-12-11T16:00:45.861Z,20.03
2018-12-11T16:05:50.614Z,20.20
2018-12-11T16:10:56.548Z,20.23
2018-12-11T16:16:00.320Z,20.26
2018-12-11T16:21:03.991Z,20.26
2018-12-11T16:26:07.701Z,20.33
2018-12-11T16:31:11.571Z,20.40
2018-12-11T16:36:15.221Z,20.44
2018-12-11T16:41:19.603Z,20.48
2018-12-11T16:46:23.249Z,20.49
2018-12-11T16:56:50.886Z,20.56
2018-12-11T17:01:55.636Z,20.59
2018-12-11T17:12:47.731Z,20.64
2018-12-11T17:23:17.957Z,20.66
2018-12-11T17:28:30.867Z,20.71
2018-12-11T17:33:40.272Z,20.73
2018-12-11T18:14:48.636Z,20.98
2018-12-11T18:19:52.269Z,20.99
2018-12-11T18:24:56.920Z,20.98
2018-12-11T18:35:59.166Z,21.03
2018-12-11T18:46:33.487Z,20.98
2018-12-11T19:24:43.732Z,20.94
2018-12-11T19:35:21.086Z,20.95
2018-12-11T19:40:25.040Z,20.94
2018-12-11T19:56:21.232Z,21.06
2018-12-11T20:01:25.635Z,21.10
2018-12-11T20:06:29.322Z,21.09
2018-12-11T20:11:32.722Z,21.11
2018-12-11T20:16:36.279Z,21.08
2018-12-11T20:21:39.665Z,21.10
2018-12-11T20:26:43.125Z,21.17
2018-12-11T20:31:46.492Z,21.16
2018-12-11T20:36:50.182Z,21.18
2018-12-11T20:41:53.581Z,21.16
2018-12-11T20:46:57.181Z,21.25
2018-12-11T20:52:00.754Z,21.19
2018-12-11T20:57:04.240Z,21.20
2018-12-11T21:02:07.645Z,21.20
2018-12-11T21:07:11.001Z,21.18
2018-12-11T21:12:14.651Z,21.19
2018-12-11T21:17:18.254Z,21.20
2018-12-11T21:22:21.843Z,21.21
2018-12-11T21:27:25.451Z,21.22
2018-12-11T21:32:29.132Z,21.23
2018-12-11T21:37:32.660Z,21.22
2018-12-11T21:42:36.605Z,21.22
2018-12-11T21:47:40.110Z,21.23
2018-12-11T21:52:43.692Z,21.25
2018-12-11T21:57:47.175Z,21.22
2018-12-11T22:02:50.802Z,21.24
2018-12-11T22:07:54.253Z,21.21
2018-12-11T22:12:57.835Z,21.25
2018-12-11T22:18:01.373Z,21.23
2018-12-11T22:23:04.814Z,21.24
2018-12-11T22:28:08.246Z,21.24
2018-12-11T22:33:11.669Z,21.23
2018-12-11T22:38:15.154Z,21.25
2018-12-11T22:43:18.743Z,21.22
2018-12-11T22:48:22.205Z,21.24
2018-12-11T22:53:26.160Z,21.21
2018-12-11T22:58:30.182Z,21.25
2018-12-11T23:03:33.719Z,21.25
2018-12-11T23:08:37.271Z,21.25
2018-12-11T23:13:40.790Z,21.25
2018-12-11T23:18:44.234Z,21.23
2018-12-11T23:23:47.761Z,21.22
2018-12-11T23:28:51.215Z,21.22
2018-12-11T23:33:55.008Z,21.24
2018-12-11T23:38:58.519Z,21.24
2018-12-11T23:44:01.898Z,21.26
2018-12-11T23:49:05.442Z,21.27
2018-12-11T23:54:09.030Z,21.23
2018-12-11T23:59:12.510Z,21.25
